sensor_id;sensor_type;location;lat;lon;timestamp;P1;durP1;ratioP1;P2;durP2;ratioP2
75682;SDS011;64295;44.772;39.872;2022-12-18T00:01:16;5.82;;;3.65;;
75682;SDS011;64295;44.772;39.872;2022-12-18T00:03:50;8.68;;;4.13;;
75682;SDS011;64295;44.772;39.872;2022-12-18T00:06:21;8.00;;;3.58;;
75682;SDS011;64295;44.772;39.872;2022-12-18T00:08:48;6.45;;;3.05;;
75682;SDS011;64295;44.772;39.872;2022-12-18T00:11:15;6.60;;;3.83;;
75682;SDS011;64295;44.772;39.872;2022-12-18T00:13:43;6.85;;;3.15;;
75682;SDS011;64295;44.772;39.872;2022-12-18T00:16:11;6.35;;;3.33;;
75682;SDS011;64295;44.772;39.872;2022-12-18T00:18:38;6.95;;;3.00;;
75682;SDS011;64295;44.772;39.872;2022-12-18T00:21:05;5.85;;;3.03;;
75682;SDS011;64295;44.772;39.872;2022-12-18T00:23:33;6.38;;;2.17;;
75682;SDS011;64295;44.772;39.872;2022-12-18T00:26:00;6.35;;;2.50;;
75682;SDS011;64295;44.772;39.872;2022-12-18T00:28:31;8.02;;;3.13;;
75682;SDS011;64295;44.772;39.872;2022-12-18T00:31:07;6.20;;;2.95;;
75682;SDS011;64295;44.772;39.872;2022-12-18T00:33:35;5.75;;;2.95;;
75682;SDS011;64295;44.772;39.872;2022-12-18T00:36:02;5.75;;;2.47;;
75682;SDS011;64295;44.772;39.872;2022-12-18T00:38:32;6.70;;;2.50;;
75682;SDS011;64295;44.772;39.872;2022-12-18T00:40:59;7.35;;;3.03;;
75682;SDS011;64295;44.772;39.872;2022-12-18T00:43:25;6.57;;;3.28;;
75682;SDS011;64295;44.772;39.872;2022-12-18T00:45:52;8.20;;;3.10;;
75682;SDS011;64295;44.772;39.872;2022-12-18T00:48:18;3.80;;;2.45;;
75682;SDS011;64295;44.772;39.872;2022-12-18T00:50:44;4.47;;;2.35;;
75682;SDS011;64295;44.772;39.872;2022-12-18T00:53:10;6.70;;;2.75;;
75682;SDS011;64295;44.772;39.872;2022-12-18T00:55:39;7.30;;;3.08;;
75682;SDS011;64295;44.772;39.872;2022-12-18T00:58:06;7.18;;;2.80;;
75682;SDS011;64295;44.772;39.872;2022-12-18T01:00:34;10.27;;;3.63;;
75682;SDS011;64295;44.772;39.872;2022-12-18T01:03:01;6.80;;;3.08;;
75682;SDS011;64295;44.772;39.872;2022-12-18T01:05:27;6.28;;;3.10;;
75682;SDS011;64295;44.772;39.872;2022-12-18T01:07:53;10.15;;;3.40;;
75682;SDS011;64295;44.772;39.872;2022-12-18T01:10:20;6.15;;;3.20;;
75682;SDS011;64295;44.772;39.872;2022-12-18T01:12:46;4.22;;;2.75;;
75682;SDS011;64295;44.772;39.872;2022-12-18T01:15:13;6.03;;;3.00;;
75682;SDS011;64295;44.772;39.872;2022-12-18T01:17:42;8.02;;;3.30;;
75682;SDS011;64295;44.772;39.872;2022-12-18T01:20:09;5.95;;;3.10;;
75682;SDS011;64295;44.772;39.872;2022-12-18T01:22:37;6.85;;;2.72;;
75682;SDS011;64295;44.772;39.872;2022-12-18T01:25:03;5.82;;;2.95;;
75682;SDS011;64295;44.772;39.872;2022-12-18T01:27:30;6.97;;;3.00;;
75682;SDS011;64295;44.772;39.872;2022-12-18T01:29:56;7.72;;;3.40;;
75682;SDS011;64295;44.772;39.872;2022-12-18T01:32:22;5.70;;;2.95;;
75682;SDS011;64295;44.772;39.872;2022-12-18T01:34:49;4.70;;;2.40;;
75682;SDS011;64295;44.772;39.872;2022-12-18T01:37:15;6.93;;;2.88;;
75682;SDS011;64295;44.772;39.872;2022-12-18T01:39:41;5.43;;;2.30;;
75682;SDS011;64295;44.772;39.872;2022-12-18T01:42:14;4.78;;;2.85;;
75682;SDS011;64295;44.772;39.872;2022-12-18T01:44:58;5.47;;;3.08;;
75682;SDS011;64295;44.772;39.872;2022-12-18T01:52:51;5.80;;;2.85;;
75682;SDS011;64295;44.772;39.872;2022-12-18T01:55:40;8.30;;;2.50;;
75682;SDS011;64295;44.772;39.872;2022-12-18T01:58:11;7.03;;;2.80;;
75682;SDS011;64295;44.772;39.872;2022-12-18T02:00:38;5.10;;;3.05;;
75682;SDS011;64295;44.772;39.872;2022-12-18T02:03:04;4.72;;;2.88;;
75682;SDS011;64295;44.772;39.872;2022-12-18T02:10:41;4.80;;;2.78;;
75682;SDS011;64295;44.772;39.872;2022-12-18T02:13:27;5.68;;;2.65;;
75682;SDS011;64295;44.772;39.872;2022-12-18T02:18:55;5.85;;;2.67;;
75682;SDS011;64295;44.772;39.872;2022-12-18T02:21:34;10.05;;;4.55;;
75682;SDS011;64295;44.772;39.872;2022-12-18T02:24:17;9.02;;;5.47;;
75682;SDS011;64295;44.772;39.872;2022-12-18T02:26:48;8.23;;;5.40;;
75682;SDS011;64295;44.772;39.872;2022-12-18T02:29:26;8.43;;;4.85;;
75682;SDS011;64295;44.772;39.872;2022-12-18T02:31:57;12.88;;;5.80;;
75682;SDS011;64295;44.772;39.872;2022-12-18T02:34:26;8.65;;;4.65;;
75682;SDS011;64295;44.772;39.872;2022-12-18T02:36:57;11.32;;;4.50;;
75682;SDS011;64295;44.772;39.872;2022-12-18T02:39:26;8.10;;;4.50;;
75682;SDS011;64295;44.772;39.872;2022-12-18T02:42:02;9.40;;;3.95;;
75682;SDS011;64295;44.772;39.872;2022-12-18T02:44:49;12.88;;;5.47;;
75682;SDS011;64295;44.772;39.872;2022-12-18T02:47:20;10.32;;;5.78;;
75682;SDS011;64295;44.772;39.872;2022-12-18T02:52:47;10.25;;;5.57;;
75682;SDS011;64295;44.772;39.872;2022-12-18T03:05:02;12.98;;;5.10;;
75682;SDS011;64295;44.772;39.872;2022-12-18T03:10:48;9.20;;;5.03;;
75682;SDS011;64295;44.772;39.872;2022-12-18T03:13:20;9.98;;;4.50;;
75682;SDS011;64295;44.772;39.872;2022-12-18T03:15:53;10.23;;;4.47;;
75682;SDS011;64295;44.772;39.872;2022-12-18T03:21:01;11.35;;;5.25;;
75682;SDS011;64295;44.772;39.872;2022-12-18T03:23:34;8.98;;;4.55;;
75682;SDS011;64295;44.772;39.872;2022-12-18T03:26:07;8.50;;;4.03;;
75682;SDS011;64295;44.772;39.872;2022-12-18T03:28:40;6.65;;;3.47;;
75682;SDS011;64295;44.772;39.872;2022-12-18T03:31:11;8.05;;;4.82;;
75682;SDS011;64295;44.772;39.872;2022-12-18T03:33:41;6.93;;;4.18;;
75682;SDS011;64295;44.772;39.872;2022-12-18T03:36:37;8.18;;;3.85;;
75682;SDS011;64295;44.772;39.872;2022-12-18T03:39:04;8.10;;;3.80;;
75682;SDS011;64295;44.772;39.872;2022-12-18T03:41:43;7.65;;;4.10;;
75682;SDS011;64295;44.772;39.872;2022-12-18T03:47:43;6.10;;;3.10;;
75682;SDS011;64295;44.772;39.872;2022-12-18T03:50:44;5.97;;;3.00;;
75682;SDS011;64295;44.772;39.872;2022-12-18T03:56:11;5.07;;;2.72;;
75682;SDS011;64295;44.772;39.872;2022-12-18T03:58:40;6.07;;;3.47;;
75682;SDS011;64295;44.772;39.872;2022-12-18T04:01:34;6.68;;;2.92;;
75682;SDS011;64295;44.772;39.872;2022-12-18T04:04:03;6.80;;;2.50;;
75682;SDS011;64295;44.772;39.872;2022-12-18T04:06:36;5.30;;;2.80;;
75682;SDS011;64295;44.772;39.872;2022-12-18T04:09:03;5.85;;;3.00;;
75682;SDS011;64295;44.772;39.872;2022-12-18T04:11:34;6.93;;;3.03;;
75682;SDS011;64295;44.772;39.872;2022-12-18T04:14:02;4.75;;;2.55;;
75682;SDS011;64295;44.772;39.872;2022-12-18T04:16:27;5.20;;;2.45;;
75682;SDS011;64295;44.772;39.872;2022-12-18T04:18:58;7.18;;;3.45;;
75682;SDS011;64295;44.772;39.872;2022-12-18T04:21:26;5.90;;;3.22;;
75682;SDS011;64295;44.772;39.872;2022-12-18T04:23:52;6.32;;;3.63;;
75682;SDS011;64295;44.772;39.872;2022-12-18T04:26:20;8.95;;;3.15;;
75682;SDS011;64295;44.772;39.872;2022-12-18T04:28:57;7.22;;;3.50;;
75682;SDS011;64295;44.772;39.872;2022-12-18T04:31:23;6.03;;;3.42;;
75682;SDS011;64295;44.772;39.872;2022-12-18T04:33:50;5.55;;;2.85;;
75682;SDS011;64295;44.772;39.872;2022-12-18T04:36:16;4.88;;;2.90;;
75682;SDS011;64295;44.772;39.872;2022-12-18T04:38:43;5.60;;;2.92;;
75682;SDS011;64295;44.772;39.872;2022-12-18T04:41:13;9.52;;;3.20;;
75682;SDS011;64295;44.772;39.872;2022-12-18T04:43:40;6.30;;;2.85;;
75682;SDS011;64295;44.772;39.872;2022-12-18T04:46:06;6.03;;;3.00;;
75682;SDS011;64295;44.772;39.872;2022-12-18T04:48:33;7.38;;;2.80;;
75682;SDS011;64295;44.772;39.872;2022-12-18T04:51:01;6.20;;;3.08;;
75682;SDS011;64295;44.772;39.872;2022-12-18T04:53:27;8.38;;;3.35;;
75682;SDS011;64295;44.772;39.872;2022-12-18T04:56:05;4.93;;;2.97;;
75682;SDS011;64295;44.772;39.872;2022-12-18T04:58:39;7.78;;;3.40;;
75682;SDS011;64295;44.772;39.872;2022-12-18T05:01:06;8.43;;;3.47;;
75682;SDS011;64295;44.772;39.872;2022-12-18T05:03:33;7.50;;;3.08;;
75682;SDS011;64295;44.772;39.872;2022-12-18T05:05:59;5.00;;;2.72;;
75682;SDS011;64295;44.772;39.872;2022-12-18T05:08:25;4.85;;;2.53;;
75682;SDS011;64295;44.772;39.872;2022-12-18T05:10:58;10.88;;;2.72;;
75682;SDS011;64295;44.772;39.872;2022-12-18T05:13:29;4.30;;;1.92;;
75682;SDS011;64295;44.772;39.872;2022-12-18T05:15:55;5.60;;;2.80;;
75682;SDS011;64295;44.772;39.872;2022-12-18T05:18:22;6.07;;;2.10;;
75682;SDS011;64295;44.772;39.872;2022-12-18T05:20:49;4.72;;;2.03;;
75682;SDS011;64295;44.772;39.872;2022-12-18T05:23:16;6.50;;;2.13;;
75682;SDS011;64295;44.772;39.872;2022-12-18T05:25:42;9.75;;;2.42;;
75682;SDS011;64295;44.772;39.872;2022-12-18T05:28:08;6.22;;;3.38;;
75682;SDS011;64295;44.772;39.872;2022-12-18T05:30:34;8.77;;;2.92;;
75682;SDS011;64295;44.772;39.872;2022-12-18T05:33:00;7.72;;;3.17;;
75682;SDS011;64295;44.772;39.872;2022-12-18T05:35:25;10.13;;;3.72;;
75682;SDS011;64295;44.772;39.872;2022-12-18T05:37:51;11.57;;;3.92;;
75682;SDS011;64295;44.772;39.872;2022-12-18T05:40:17;11.27;;;3.75;;
75682;SDS011;64295;44.772;39.872;2022-12-18T05:42:43;10.30;;;4.90;;
75682;SDS011;64295;44.772;39.872;2022-12-18T05:45:09;10.38;;;4.45;;
75682;SDS011;64295;44.772;39.872;2022-12-18T05:47:35;9.38;;;4.43;;
75682;SDS011;64295;44.772;39.872;2022-12-18T05:50:01;10.40;;;6.35;;
75682;SDS011;64295;44.772;39.872;2022-12-18T05:52:27;13.77;;;5.30;;
75682;SDS011;64295;44.772;39.872;2022-12-18T05:54:53;9.02;;;4.15;;
75682;SDS011;64295;44.772;39.872;2022-12-18T05:57:19;17.23;;;6.80;;
75682;SDS011;64295;44.772;39.872;2022-12-18T05:59:45;18.00;;;7.10;;
75682;SDS011;64295;44.772;39.872;2022-12-18T06:02:11;20.70;;;9.18;;
75682;SDS011;64295;44.772;39.872;2022-12-18T06:04:37;16.98;;;7.75;;
75682;SDS011;64295;44.772;39.872;2022-12-18T06:07:02;16.98;;;7.78;;
75682;SDS011;64295;44.772;39.872;2022-12-18T06:09:28;16.00;;;6.95;;
75682;SDS011;64295;44.772;39.872;2022-12-18T06:11:54;16.02;;;6.38;;
75682;SDS011;64295;44.772;39.872;2022-12-18T06:14:20;20.23;;;6.65;;
75682;SDS011;64295;44.772;39.872;2022-12-18T06:16:46;12.43;;;5.70;;
75682;SDS011;64295;44.772;39.872;2022-12-18T06:19:15;12.60;;;6.13;;
75682;SDS011;64295;44.772;39.872;2022-12-18T06:24:07;11.68;;;5.95;;
75682;SDS011;64295;44.772;39.872;2022-12-18T06:26:33;14.63;;;6.68;;
75682;SDS011;64295;44.772;39.872;2022-12-18T06:29:01;8.70;;;5.28;;
75682;SDS011;64295;44.772;39.872;2022-12-18T06:31:27;10.80;;;5.45;;
75682;SDS011;64295;44.772;39.872;2022-12-18T06:33:53;10.63;;;5.68;;
75682;SDS011;64295;44.772;39.872;2022-12-18T06:36:22;10.23;;;5.55;;
75682;SDS011;64295;44.772;39.872;2022-12-18T06:39:06;13.07;;;5.45;;
75682;SDS011;64295;44.772;39.872;2022-12-18T06:41:32;10.65;;;5.55;;
75682;SDS011;64295;44.772;39.872;2022-12-18T06:43:58;9.07;;;4.70;;
75682;SDS011;64295;44.772;39.872;2022-12-18T06:46:24;13.88;;;5.85;;
75682;SDS011;64295;44.772;39.872;2022-12-18T06:48:50;11.18;;;6.03;;
75682;SDS011;64295;44.772;39.872;2022-12-18T06:51:17;12.15;;;6.95;;
75682;SDS011;64295;44.772;39.872;2022-12-18T06:53:46;14.32;;;5.57;;
75682;SDS011;64295;44.772;39.872;2022-12-18T06:56:12;11.88;;;6.30;;
75682;SDS011;64295;44.772;39.872;2022-12-18T06:58:39;15.30;;;5.88;;
75682;SDS011;64295;44.772;39.872;2022-12-18T07:01:06;11.68;;;5.95;;
75682;SDS011;64295;44.772;39.872;2022-12-18T07:03:33;17.30;;;6.10;;
75682;SDS011;64295;44.772;39.872;2022-12-18T07:05:59;15.50;;;5.82;;
75682;SDS011;64295;44.772;39.872;2022-12-18T07:08:25;13.05;;;4.93;;
75682;SDS011;64295;44.772;39.872;2022-12-18T07:11:02;11.80;;;5.70;;
75682;SDS011;64295;44.772;39.872;2022-12-18T07:13:29;16.95;;;6.65;;
75682;SDS011;64295;44.772;39.872;2022-12-18T07:16:02;12.48;;;5.70;;
75682;SDS011;64295;44.772;39.872;2022-12-18T07:18:29;17.65;;;6.97;;
75682;SDS011;64295;44.772;39.872;2022-12-18T07:20:55;11.40;;;6.10;;
75682;SDS011;64295;44.772;39.872;2022-12-18T07:23:21;19.38;;;8.88;;
75682;SDS011;64295;44.772;39.872;2022-12-18T07:25:49;9.80;;;6.20;;
75682;SDS011;64295;44.772;39.872;2022-12-18T07:28:15;8.85;;;4.90;;
75682;SDS011;64295;44.772;39.872;2022-12-18T07:30:43;7.70;;;4.47;;
75682;SDS011;64295;44.772;39.872;2022-12-18T07:33:09;12.65;;;4.80;;
75682;SDS011;64295;44.772;39.872;2022-12-18T07:35:36;14.43;;;6.40;;
75682;SDS011;64295;44.772;39.872;2022-12-18T07:38:02;11.52;;;5.47;;
75682;SDS011;64295;44.772;39.872;2022-12-18T07:40:28;12.15;;;6.32;;
75682;SDS011;64295;44.772;39.872;2022-12-18T07:42:54;11.77;;;6.03;;
75682;SDS011;64295;44.772;39.872;2022-12-18T07:45:20;14.07;;;6.00;;
75682;SDS011;64295;44.772;39.872;2022-12-18T07:47:46;11.45;;;5.78;;
75682;SDS011;64295;44.772;39.872;2022-12-18T07:50:12;10.93;;;5.78;;
75682;SDS011;64295;44.772;39.872;2022-12-18T07:52:38;12.82;;;5.30;;
75682;SDS011;64295;44.772;39.872;2022-12-18T07:55:04;13.38;;;5.53;;
75682;SDS011;64295;44.772;39.872;2022-12-18T07:57:30;12.40;;;6.13;;
75682;SDS011;64295;44.772;39.872;2022-12-18T07:59:56;11.93;;;5.15;;
75682;SDS011;64295;44.772;39.872;2022-12-18T08:02:22;15.07;;;6.03;;
75682;SDS011;64295;44.772;39.872;2022-12-18T08:04:51;13.32;;;6.38;;
75682;SDS011;64295;44.772;39.872;2022-12-18T08:07:16;11.30;;;6.35;;
75682;SDS011;64295;44.772;39.872;2022-12-18T08:09:42;11.93;;;6.10;;
75682;SDS011;64295;44.772;39.872;2022-12-18T08:12:08;13.85;;;6.50;;
75682;SDS011;64295;44.772;39.872;2022-12-18T08:14:34;10.40;;;5.75;;
75682;SDS011;64295;44.772;39.872;2022-12-18T08:17:00;7.80;;;4.43;;
75682;SDS011;64295;44.772;39.872;2022-12-18T08:19:26;8.35;;;4.10;;
75682;SDS011;64295;44.772;39.872;2022-12-18T08:21:52;11.40;;;4.70;;
75682;SDS011;64295;44.772;39.872;2022-12-18T08:24:18;12.20;;;5.20;;
75682;SDS011;64295;44.772;39.872;2022-12-18T08:26:44;10.52;;;4.60;;
75682;SDS011;64295;44.772;39.872;2022-12-18T08:29:10;10.82;;;4.43;;
75682;SDS011;64295;44.772;39.872;2022-12-18T08:31:36;8.90;;;4.00;;
75682;SDS011;64295;44.772;39.872;2022-12-18T08:34:02;6.40;;;3.72;;
75682;SDS011;64295;44.772;39.872;2022-12-18T08:36:31;8.30;;;3.53;;
75682;SDS011;64295;44.772;39.872;2022-12-18T08:38:57;14.32;;;4.53;;
75682;SDS011;64295;44.772;39.872;2022-12-18T08:41:22;5.97;;;2.88;;
75682;SDS011;64295;44.772;39.872;2022-12-18T08:43:49;11.57;;;4.43;;
75682;SDS011;64295;44.772;39.872;2022-12-18T08:46:40;12.23;;;4.70;;
75682;SDS011;64295;44.772;39.872;2022-12-18T08:49:07;15.57;;;5.30;;
75682;SDS011;64295;44.772;39.872;2022-12-18T08:51:33;15.40;;;4.55;;
75682;SDS011;64295;44.772;39.872;2022-12-18T08:54:01;16.13;;;5.30;;
75682;SDS011;64295;44.772;39.872;2022-12-18T08:56:27;23.15;;;6.53;;
75682;SDS011;64295;44.772;39.872;2022-12-18T08:58:55;51.22;;;20.25;;
75682;SDS011;64295;44.772;39.872;2022-12-18T09:01:21;32.97;;;12.65;;
75682;SDS011;64295;44.772;39.872;2022-12-18T09:03:48;22.80;;;6.30;;
75682;SDS011;64295;44.772;39.872;2022-12-18T09:06:16;17.95;;;5.95;;
75682;SDS011;64295;44.772;39.872;2022-12-18T09:08:49;24.65;;;7.13;;
75682;SDS011;64295;44.772;39.872;2022-12-18T09:11:19;28.63;;;7.65;;
75682;SDS011;64295;44.772;39.872;2022-12-18T09:13:45;24.60;;;5.63;;
75682;SDS011;64295;44.772;39.872;2022-12-18T09:16:11;18.83;;;5.00;;
75682;SDS011;64295;44.772;39.872;2022-12-18T09:18:37;12.35;;;4.00;;
75682;SDS011;64295;44.772;39.872;2022-12-18T09:21:17;11.48;;;3.38;;
75682;SDS011;64295;44.772;39.872;2022-12-18T09:23:48;8.05;;;3.47;;
75682;SDS011;64295;44.772;39.872;2022-12-18T09:26:18;6.82;;;3.47;;
75682;SDS011;64295;44.772;39.872;2022-12-18T09:28:45;8.95;;;3.45;;
75682;SDS011;64295;44.772;39.872;2022-12-18T09:31:14;5.57;;;3.67;;
75682;SDS011;64295;44.772;39.872;2022-12-18T09:33:41;10.25;;;4.38;;
75682;SDS011;64295;44.772;39.872;2022-12-18T09:36:08;8.93;;;3.92;;
75682;SDS011;64295;44.772;39.872;2022-12-18T09:38:35;7.93;;;5.18;;
75682;SDS011;64295;44.772;39.872;2022-12-18T09:41:05;10.23;;;5.30;;
75682;SDS011;64295;44.772;39.872;2022-12-18T09:43:46;9.50;;;5.18;;
75682;SDS011;64295;44.772;39.872;2022-12-18T09:46:18;7.78;;;4.75;;
75682;SDS011;64295;44.772;39.872;2022-12-18T09:48:50;6.50;;;3.60;;
75682;SDS011;64295;44.772;39.872;2022-12-18T09:51:21;11.73;;;3.63;;
75682;SDS011;64295;44.772;39.872;2022-12-18T09:53:57;12.23;;;3.53;;
75682;SDS011;64295;44.772;39.872;2022-12-18T09:56:31;12.63;;;4.07;;
75682;SDS011;64295;44.772;39.872;2022-12-18T09:59:03;9.32;;;3.83;;
75682;SDS011;64295;44.772;39.872;2022-12-18T10:01:30;8.02;;;3.40;;
75682;SDS011;64295;44.772;39.872;2022-12-18T10:03:57;10.57;;;3.10;;
75682;SDS011;64295;44.772;39.872;2022-12-18T10:09:08;11.88;;;3.53;;
75682;SDS011;64295;44.772;39.872;2022-12-18T10:11:51;7.60;;;3.03;;
75682;SDS011;64295;44.772;39.872;2022-12-18T10:20:05;6.82;;;2.95;;
75682;SDS011;64295;44.772;39.872;2022-12-18T10:22:42;9.35;;;3.65;;
75682;SDS011;64295;44.772;39.872;2022-12-18T10:25:17;34.53;;;21.15;;
75682;SDS011;64295;44.772;39.872;2022-12-18T10:27:51;9.55;;;3.97;;
75682;SDS011;64295;44.772;39.872;2022-12-18T10:30:21;11.38;;;3.40;;
75682;SDS011;64295;44.772;39.872;2022-12-18T10:32:48;6.70;;;3.40;;
75682;SDS011;64295;44.772;39.872;2022-12-18T10:35:20;9.05;;;5.00;;
75682;SDS011;64295;44.772;39.872;2022-12-18T10:40:31;8.07;;;4.28;;
75682;SDS011;64295;44.772;39.872;2022-12-18T10:45:31;12.15;;;4.63;;
75682;SDS011;64295;44.772;39.872;2022-12-18T10:47:59;6.10;;;2.45;;
75682;SDS011;64295;44.772;39.872;2022-12-18T10:53:01;6.05;;;3.00;;
75682;SDS011;64295;44.772;39.872;2022-12-18T10:55:52;5.25;;;2.83;;
75682;SDS011;64295;44.772;39.872;2022-12-18T10:58:24;16.42;;;10.38;;
75682;SDS011;64295;44.772;39.872;2022-12-18T11:01:05;8.68;;;4.80;;
75682;SDS011;64295;44.772;39.872;2022-12-18T11:03:44;12.50;;;6.10;;
75682;SDS011;64295;44.772;39.872;2022-12-18T11:06:13;6.75;;;3.80;;
75682;SDS011;64295;44.772;39.872;2022-12-18T11:08:58;8.85;;;4.65;;
75682;SDS011;64295;44.772;39.872;2022-12-18T11:11:29;8.90;;;4.40;;
75682;SDS011;64295;44.772;39.872;2022-12-18T11:14:04;7.63;;;4.00;;
75682;SDS011;64295;44.772;39.872;2022-12-18T11:16:53;6.15;;;2.60;;
75682;SDS011;64295;44.772;39.872;2022-12-18T11:19:33;4.18;;;2.58;;
75682;SDS011;64295;44.772;39.872;2022-12-18T11:22:02;7.05;;;2.72;;
75682;SDS011;64295;44.772;39.872;2022-12-18T11:24:49;6.72;;;2.67;;
75682;SDS011;64295;44.772;39.872;2022-12-18T11:27:18;5.80;;;2.40;;
75682;SDS011;64295;44.772;39.872;2022-12-18T11:29:44;9.60;;;4.75;;
75682;SDS011;64295;44.772;39.872;2022-12-18T11:32:25;32.67;;;15.77;;
75682;SDS011;64295;44.772;39.872;2022-12-18T11:35:04;28.27;;;15.68;;
75682;SDS011;64295;44.772;39.872;2022-12-18T11:37:46;7.63;;;5.10;;
75682;SDS011;64295;44.772;39.872;2022-12-18T11:40:17;7.63;;;3.42;;
75682;SDS011;64295;44.772;39.872;2022-12-18T11:42:54;6.47;;;3.47;;
75682;SDS011;64295;44.772;39.872;2022-12-18T11:45:28;13.70;;;9.10;;
75682;SDS011;64295;44.772;39.872;2022-12-18T11:50:54;8.07;;;4.50;;
75682;SDS011;64295;44.772;39.872;2022-12-18T11:53:22;6.07;;;3.50;;
75682;SDS011;64295;44.772;39.872;2022-12-18T11:56:05;4.82;;;3.10;;
75682;SDS011;64295;44.772;39.872;2022-12-18T11:58:51;9.43;;;3.03;;
75682;SDS011;64295;44.772;39.872;2022-12-18T12:04:18;6.18;;;2.50;;
75682;SDS011;64295;44.772;39.872;2022-12-18T12:07:25;11.48;;;9.18;;
75682;SDS011;64295;44.772;39.872;2022-12-18T12:15:42;21.60;;;11.70;;
75682;SDS011;64295;44.772;39.872;2022-12-18T12:18:28;16.45;;;8.50;;
75682;SDS011;64295;44.772;39.872;2022-12-18T12:23:41;8.15;;;4.82;;
75682;SDS011;64295;44.772;39.872;2022-12-18T12:39:44;13.90;;;5.03;;
75682;SDS011;64295;44.772;39.872;2022-12-18T12:45:18;10.00;;;5.10;;
75682;SDS011;64295;44.772;39.872;2022-12-18T12:47:52;17.23;;;5.53;;
75682;SDS011;64295;44.772;39.872;2022-12-18T12:50:20;15.55;;;6.75;;
75682;SDS011;64295;44.772;39.872;2022-12-18T12:52:50;15.55;;;7.65;;
75682;SDS011;64295;44.772;39.872;2022-12-18T12:55:25;14.35;;;6.88;;
75682;SDS011;64295;44.772;39.872;2022-12-18T13:00:20;16.25;;;7.57;;
75682;SDS011;64295;44.772;39.872;2022-12-18T13:09:20;25.55;;;19.38;;
75682;SDS011;64295;44.772;39.872;2022-12-18T13:11:47;16.65;;;6.53;;
75682;SDS011;64295;44.772;39.872;2022-12-18T13:14:32;9.27;;;5.03;;
75682;SDS011;64295;44.772;39.872;2022-12-18T13:19:48;14.98;;;5.78;;
75682;SDS011;64295;44.772;39.872;2022-12-18T13:22:38;11.90;;;4.78;;
75682;SDS011;64295;44.772;39.872;2022-12-18T13:30:45;5.90;;;3.05;;
75682;SDS011;64295;44.772;39.872;2022-12-18T13:35:41;10.15;;;4.88;;
75682;SDS011;64295;44.772;39.872;2022-12-18T13:43:47;10.15;;;5.50;;
75682;SDS011;64295;44.772;39.872;2022-12-18T13:51:48;9.88;;;5.10;;
75682;SDS011;64295;44.772;39.872;2022-12-18T13:54:39;10.55;;;4.82;;
75682;SDS011;64295;44.772;39.872;2022-12-18T13:59:55;12.25;;;6.60;;
75682;SDS011;64295;44.772;39.872;2022-12-18T14:02:44;11.50;;;5.82;;
75682;SDS011;64295;44.772;39.872;2022-12-18T14:05:38;12.65;;;6.60;;
75682;SDS011;64295;44.772;39.872;2022-12-18T14:08:10;12.88;;;7.22;;
75682;SDS011;64295;44.772;39.872;2022-12-18T14:10:45;15.43;;;7.13;;
75682;SDS011;64295;44.772;39.872;2022-12-18T14:13:27;22.50;;;10.40;;
75682;SDS011;64295;44.772;39.872;2022-12-18T14:16:03;19.73;;;10.35;;
75682;SDS011;64295;44.772;39.872;2022-12-18T14:21:21;18.05;;;7.25;;
75682;SDS011;64295;44.772;39.872;2022-12-18T14:24:18;13.77;;;6.63;;
75682;SDS011;64295;44.772;39.872;2022-12-18T14:26:48;12.95;;;6.65;;
75682;SDS011;64295;44.772;39.872;2022-12-18T14:29:25;12.60;;;7.20;;
75682;SDS011;64295;44.772;39.872;2022-12-18T14:34:52;14.27;;;7.25;;
75682;SDS011;64295;44.772;39.872;2022-12-18T14:37:23;15.00;;;7.35;;
75682;SDS011;64295;44.772;39.872;2022-12-18T14:39:54;19.30;;;8.70;;
75682;SDS011;64295;44.772;39.872;2022-12-18T14:42:22;14.57;;;7.25;;
75682;SDS011;64295;44.772;39.872;2022-12-18T14:44:48;20.60;;;9.15;;
75682;SDS011;64295;44.772;39.872;2022-12-18T14:47:15;17.98;;;8.68;;
75682;SDS011;64295;44.772;39.872;2022-12-18T14:49:41;21.48;;;9.23;;
75682;SDS011;64295;44.772;39.872;2022-12-18T14:52:26;24.42;;;10.30;;
75682;SDS011;64295;44.772;39.872;2022-12-18T14:54:56;19.98;;;9.02;;
75682;SDS011;64295;44.772;39.872;2022-12-18T14:59:48;22.50;;;9.05;;
75682;SDS011;64295;44.772;39.872;2022-12-18T15:02:18;21.92;;;9.70;;
75682;SDS011;64295;44.772;39.872;2022-12-18T15:04:53;19.88;;;9.90;;
75682;SDS011;64295;44.772;39.872;2022-12-18T15:07:40;21.35;;;9.05;;
75682;SDS011;64295;44.772;39.872;2022-12-18T15:10:12;21.77;;;10.45;;
75682;SDS011;64295;44.772;39.872;2022-12-18T15:12:44;24.20;;;9.75;;
75682;SDS011;64295;44.772;39.872;2022-12-18T15:20:47;23.48;;;10.38;;
75682;SDS011;64295;44.772;39.872;2022-12-18T15:23:25;20.60;;;9.35;;
75682;SDS011;64295;44.772;39.872;2022-12-18T15:26:07;24.45;;;10.65;;
75682;SDS011;64295;44.772;39.872;2022-12-18T15:33:42;21.30;;;11.63;;
75682;SDS011;64295;44.772;39.872;2022-12-18T15:36:10;22.27;;;10.80;;
75682;SDS011;64295;44.772;39.872;2022-12-18T15:38:41;22.30;;;11.23;;
75682;SDS011;64295;44.772;39.872;2022-12-18T15:41:13;23.83;;;10.60;;
75682;SDS011;64295;44.772;39.872;2022-12-18T15:43:39;19.48;;;9.85;;
75682;SDS011;64295;44.772;39.872;2022-12-18T15:46:08;24.63;;;11.43;;
75682;SDS011;64295;44.772;39.872;2022-12-18T15:48:41;19.80;;;10.65;;
75682;SDS011;64295;44.772;39.872;2022-12-18T15:51:13;28.70;;;13.27;;
75682;SDS011;64295;44.772;39.872;2022-12-18T15:53:42;23.50;;;10.98;;
75682;SDS011;64295;44.772;39.872;2022-12-18T15:56:13;54.83;;;27.77;;
75682;SDS011;64295;44.772;39.872;2022-12-18T15:59:08;28.33;;;11.60;;
75682;SDS011;64295;44.772;39.872;2022-12-18T16:01:39;22.52;;;10.63;;
75682;SDS011;64295;44.772;39.872;2022-12-18T16:04:06;14.05;;;7.28;;
75682;SDS011;64295;44.772;39.872;2022-12-18T16:06:37;11.40;;;6.90;;
75682;SDS011;64295;44.772;39.872;2022-12-18T16:09:02;14.65;;;7.15;;
75682;SDS011;64295;44.772;39.872;2022-12-18T16:11:29;12.07;;;6.97;;
75682;SDS011;64295;44.772;39.872;2022-12-18T16:14:19;15.15;;;7.18;;
75682;SDS011;64295;44.772;39.872;2022-12-18T16:16:51;9.85;;;5.50;;
75682;SDS011;64295;44.772;39.872;2022-12-18T16:19:18;14.27;;;5.97;;
75682;SDS011;64295;44.772;39.872;2022-12-18T16:21:47;11.32;;;5.55;;
75682;SDS011;64295;44.772;39.872;2022-12-18T16:24:18;13.02;;;6.00;;
75682;SDS011;64295;44.772;39.872;2022-12-18T16:26:47;21.42;;;7.07;;
75682;SDS011;64295;44.772;39.872;2022-12-18T16:29:14;13.80;;;6.07;;
75682;SDS011;64295;44.772;39.872;2022-12-18T16:31:40;11.27;;;5.72;;
75682;SDS011;64295;44.772;39.872;2022-12-18T16:34:12;9.07;;;5.53;;
75682;SDS011;64295;44.772;39.872;2022-12-18T16:36:43;12.18;;;5.90;;
75682;SDS011;64295;44.772;39.872;2022-12-18T16:39:09;12.80;;;6.28;;
75682;SDS011;64295;44.772;39.872;2022-12-18T16:41:35;17.52;;;6.85;;
75682;SDS011;64295;44.772;39.872;2022-12-18T16:44:02;17.23;;;8.77;;
75682;SDS011;64295;44.772;39.872;2022-12-18T16:46:28;14.63;;;7.82;;
75682;SDS011;64295;44.772;39.872;2022-12-18T16:48:56;12.18;;;6.43;;
75682;SDS011;64295;44.772;39.872;2022-12-18T16:51:23;14.23;;;6.63;;
75682;SDS011;64295;44.772;39.872;2022-12-18T16:53:50;13.50;;;6.95;;
75682;SDS011;64295;44.772;39.872;2022-12-18T16:56:17;10.02;;;5.15;;
75682;SDS011;64295;44.772;39.872;2022-12-18T16:58:43;13.07;;;6.65;;
75682;SDS011;64295;44.772;39.872;2022-12-18T17:01:09;10.63;;;5.30;;
75682;SDS011;64295;44.772;39.872;2022-12-18T17:03:36;13.35;;;6.60;;
75682;SDS011;64295;44.772;39.872;2022-12-18T17:06:02;11.20;;;4.45;;